createdAt,value
2022-10-05T00:00:15.785Z,5.00
2022-10-05T00:02:42.942Z,4.95
2022-10-05T00:05:29.586Z,4.85
2022-10-05T00:08:04.381Z,5.30
2022-10-05T00:10:31.452Z,5.50
2022-10-05T00:12:57.857Z,5.28
2022-10-05T00:15:24.288Z,5.38
2022-10-05T00:17:50.721Z,4.78
2022-10-05T00:20:25.647Z,5.55
2022-10-05T00:22:57.658Z,5.43
2022-10-05T00:25:24.844Z,5.30
2022-10-05T00:27:58.642Z,4.97
2022-10-05T00:30:31.008Z,5.72
2022-10-05T00:32:59.624Z,5.53
2022-10-05T00:35:29.139Z,5.78
2022-10-05T00:37:56.177Z,5.47
2022-10-05T00:40:35.455Z,5.93
2022-10-05T00:43:26.965Z,5.75
2022-10-05T00:46:40.089Z,5.75
2022-10-05T00:49:34.341Z,5.75
2022-10-05T00:52:52.218Z,5.72
2022-10-05T00:55:38.649Z,6.32
2022-10-05T00:58:32.897Z,5.00
2022-10-05T01:01:13.765Z,5.30
2022-10-05T01:03:58.786Z,4.65
2022-10-05T01:06:50.426Z,6.05
2022-10-05T01:09:42.258Z,5.18
2022-10-05T01:12:11.668Z,5.20
2022-10-05T01:14:44.241Z,5.63
2022-10-05T01:17:10.608Z,5.22
2022-10-05T01:20:12.789Z,5.32
2022-10-05T01:23:00.537Z,5.82
2022-10-05T01:25:41.130Z,5.18
2022-10-05T01:28:23.975Z,5.63
2022-10-05T01:31:00.173Z,5.53
2022-10-05T01:33:41.857Z,5.35
2022-10-05T01:36:19.696Z,5.90
2022-10-05T01:39:13.997Z,6.07
2022-10-05T01:41:51.768Z,5.80
2022-10-05T01:44:26.029Z,5.68
2022-10-05T01:47:17.141Z,5.88
2022-10-05T01:49:55.386Z,5.80
2022-10-05T01:53:06.312Z,5.60
2022-10-05T01:55:48.005Z,5.45
2022-10-05T01:58:29.412Z,5.72
2022-10-05T02:01:09.608Z,5.78
2022-10-05T02:03:42.573Z,6.57
2022-10-05T02:06:15.128Z,6.45
2022-10-05T02:08:49.448Z,6.65
2022-10-05T02:11:18.513Z,6.75
2022-10-05T02:13:50.727Z,5.93
2022-10-05T02:16:36.350Z,5.43
2022-10-05T02:19:16.786Z,5.65
2022-10-05T02:21:48.925Z,5.45
2022-10-05T02:24:27.113Z,5.75
2022-10-05T02:26:56.452Z,5.82
2022-10-05T02:29:27.495Z,6.30
2022-10-05T02:32:00.072Z,6.13
2022-10-05T02:34:43.563Z,5.93
2022-10-05T02:37:39.648Z,5.38
2022-10-05T02:40:15.649Z,5.40
2022-10-05T02:42:52.133Z,5.68
2022-10-05T02:45:32.484Z,5.03
2022-10-05T02:48:19.576Z,5.60
2022-10-05T02:51:02.764Z,5.10
2022-10-05T02:54:13.351Z,5.90
2022-10-05T02:56:55.730Z,5.95
2022-10-05T02:59:31.027Z,6.10
2022-10-05T03:02:15.958Z,5.28
2022-10-05T03:04:45.528Z,5.15
2022-10-05T03:07:17.843Z,5.35
2022-10-05T03:10:00.918Z,4.72
2022-10-05T03:12:50.242Z,5.32
2022-10-05T03:15:48.727Z,5.35
2022-10-05T03:18:48.228Z,4.97
2022-10-05T03:21:33.529Z,5.07
2022-10-05T03:24:26.229Z,4.57
2022-10-05T03:27:02.380Z,5.22
2022-10-05T03:29:47.245Z,5.57
2022-10-05T03:32:29.089Z,5.25
2022-10-05T03:35:03.305Z,5.88
2022-10-05T03:37:41.887Z,5.90
2022-10-05T03:40:26.525Z,6.32
2022-10-05T03:43:12.698Z,5.70
2022-10-05T03:46:00.738Z,6.60
2022-10-05T03:48:28.017Z,6.03
2022-10-05T03:51:15.639Z,5.00
2022-10-05T03:53:52.988Z,5.65
2022-10-05T03:56:34.722Z,5.40
2022-10-05T04:01:47.580Z,5.65
2022-10-05T04:04:22.894Z,5.50
2022-10-05T04:06:52.880Z,5.90
2022-10-05T04:09:39.419Z,5.45
2022-10-05T04:12:30.309Z,6.30
2022-10-05T04:15:02.857Z,5.67
2022-10-05T04:17:54.457Z,5.82
2022-10-05T04:20:56.549Z,6.35
2022-10-05T04:26:04.633Z,6.03
2022-10-05T04:29:02.461Z,5.60
2022-10-05T04:32:00.229Z,5.57
2022-10-05T04:34:48.599Z,5.78
2022-10-05T04:37:46.663Z,5.38
2022-10-05T04:41:01.741Z,5.45
2022-10-05T04:43:53.096Z,6.03
2022-10-05T04:46:38.137Z,6.30
2022-10-05T04:49:14.063Z,5.25
2022-10-05T04:51:52.911Z,5.95
2022-10-05T04:55:07.036Z,5.70
2022-10-05T04:57:50.201Z,5.60
2022-10-05T05:00:25.751Z,6.32
2022-10-05T05:03:10.942Z,6.95
2022-10-05T05:06:15.409Z,6.35
2022-10-05T05:09:13.378Z,6.20
2022-10-05T05:12:04.263Z,6.03
2022-10-05T05:14:59.984Z,6.10
2022-10-05T05:17:32.525Z,6.13
2022-10-05T05:20:27.052Z,5.75
2022-10-05T05:23:12.807Z,6.65
2022-10-05T05:26:21.594Z,6.32
2022-10-05T05:28:57.995Z,6.50
2022-10-05T05:31:30.036Z,6.80
2022-10-05T05:34:30.635Z,6.70
2022-10-05T05:37:17.986Z,6.32
2022-10-05T05:40:06.022Z,6.53
2022-10-05T05:42:49.130Z,6.47
2022-10-05T05:45:39.918Z,6.57
2022-10-05T05:48:18.025Z,6.10
2022-10-05T05:51:09.486Z,9.88
2022-10-05T05:53:41.742Z,5.47
2022-10-05T05:56:14.949Z,6.43
2022-10-05T05:58:53.342Z,5.63
2022-10-05T06:01:33.114Z,6.40
2022-10-05T06:04:43.641Z,5.78
2022-10-05T06:07:21.005Z,5.85
2022-10-05T06:10:05.481Z,6.05
2022-10-05T06:12:47.342Z,5.40
2022-10-05T06:17:57.012Z,6.35
2022-10-05T06:20:40.409Z,5.38
2022-10-05T06:23:22.373Z,6.28
2022-10-05T06:26:13.485Z,6.93
2022-10-05T06:28:42.296Z,5.47
2022-10-05T06:31:30.645Z,6.13
2022-10-05T06:34:38.021Z,6.57
2022-10-05T06:37:13.068Z,7.35
2022-10-05T06:40:00.097Z,6.50
2022-10-05T06:42:58.337Z,6.68
2022-10-05T06:46:00.079Z,6.63
2022-10-05T06:48:46.989Z,8.43
2022-10-05T06:51:50.193Z,6.68
2022-10-05T06:54:45.803Z,7.57
2022-10-05T06:57:45.127Z,5.83
2022-10-05T07:00:27.583Z,6.63
2022-10-05T07:03:18.173Z,5.47
2022-10-05T07:05:44.908Z,6.00
2022-10-05T07:08:36.478Z,5.82
2022-10-05T07:11:21.845Z,6.13
2022-10-05T07:14:23.409Z,5.43
2022-10-05T07:17:07.794Z,5.60
2022-10-05T07:20:11.765Z,5.47
2022-10-05T07:23:01.992Z,5.32
2022-10-05T07:25:34.981Z,4.80
2022-10-05T07:28:46.409Z,4.70
2022-10-05T07:31:26.950Z,4.70
2022-10-05T07:34:19.034Z,4.47
2022-10-05T07:37:26.254Z,3.95
2022-10-05T07:40:03.998Z,5.40
2022-10-05T07:42:52.942Z,5.30
2022-10-05T07:45:47.593Z,4.63
2022-10-05T07:48:20.623Z,4.85
2022-10-05T07:51:00.060Z,4.82
2022-10-05T07:53:40.452Z,4.95
2022-10-05T07:56:36.719Z,4.30
2022-10-05T07:59:14.554Z,4.45
2022-10-05T08:01:47.931Z,4.05
2022-10-05T08:04:19.842Z,3.65
2022-10-05T08:07:06.779Z,3.80
2022-10-05T08:09:39.761Z,3.75
2022-10-05T08:12:27.421Z,3.38
2022-10-05T08:15:31.513Z,3.10
2022-10-05T08:18:02.147Z,3.38
2022-10-05T08:20:47.164Z,2.90
2022-10-05T08:23:42.501Z,3.28
2022-10-05T08:26:17.913Z,3.35
2022-10-05T08:29:22.377Z,3.10
2022-10-05T08:31:51.881Z,3.38
2022-10-05T08:34:45.718Z,2.97
2022-10-05T08:37:20.883Z,3.67
2022-10-05T08:39:53.350Z,3.53
2022-10-05T08:42:36.162Z,3.50
2022-10-05T08:45:20.832Z,2.75
2022-10-05T08:48:23.331Z,3.40
2022-10-05T08:50:58.632Z,3.28
2022-10-05T08:53:54.217Z,3.47
2022-10-05T08:56:33.649Z,3.22
2022-10-05T08:58:59.997Z,3.28
2022-10-05T09:01:29.518Z,2.90
2022-10-05T09:04:04.893Z,3.13
2022-10-05T09:06:54.405Z,3.25
2022-10-05T09:09:37.522Z,3.22
2022-10-05T09:12:41.078Z,2.40
2022-10-05T09:15:45.363Z,2.53
2022-10-05T09:18:45.240Z,3.13
2022-10-05T09:21:38.302Z,2.22
2022-10-05T09:24:27.255Z,2.95
2022-10-05T09:27:12.750Z,2.30
2022-10-05T09:29:51.322Z,2.20
2022-10-05T09:32:36.658Z,1.83
2022-10-05T09:35:22.210Z,5.10
2022-10-05T09:37:57.666Z,2.35
2022-10-05T09:40:53.774Z,2.45
2022-10-05T09:43:30.566Z,1.83
2022-10-05T09:46:11.509Z,2.15
2022-10-05T09:48:56.844Z,1.90
2022-10-05T09:51:29.227Z,2.17
2022-10-05T09:54:14.603Z,2.47
2022-10-05T09:57:18.478Z,1.80
2022-10-05T09:59:47.588Z,1.45
2022-10-05T10:02:33.721Z,1.75
2022-10-05T10:05:20.056Z,1.92
2022-10-05T10:08:05.639Z,2.00
2022-10-05T10:11:07.496Z,2.00
2022-10-05T10:16:25.247Z,1.50
2022-10-05T10:19:01.639Z,1.58
2022-10-05T10:21:59.688Z,1.80
2022-10-05T10:24:48.063Z,1.40
2022-10-05T10:27:40.887Z,2.40
2022-10-05T10:30:27.647Z,1.40
2022-10-05T10:33:15.402Z,1.80
2022-10-05T10:36:00.509Z,1.70
2022-10-05T10:38:40.214Z,1.50
2022-10-05T10:41:06.596Z,1.40
2022-10-05T10:44:10.973Z,1.50
2022-10-05T10:46:53.146Z,1.30
2022-10-05T10:49:29.136Z,1.45
2022-10-05T10:52:19.487Z,1.50
2022-10-05T10:54:57.176Z,1.42
2022-10-05T10:57:29.474Z,1.45
2022-10-05T11:00:02.670Z,1.55
2022-10-05T11:02:47.270Z,1.65
2022-10-05T11:05:30.023Z,1.50
2022-10-05T11:08:13.452Z,1.60
2022-10-05T11:11:07.573Z,1.58
2022-10-05T11:14:02.546Z,1.73
2022-10-05T11:16:59.574Z,1.60
2022-10-05T11:19:40.326Z,1.80
2022-10-05T11:22:31.377Z,1.60
2022-10-05T11:25:16.828Z,1.38
2022-10-05T11:28:15.457Z,1.98
2022-10-05T11:31:00.973Z,1.80
2022-10-05T11:33:49.236Z,2.17
2022-10-05T11:36:50.643Z,1.50
2022-10-05T11:39:36.735Z,1.73
2022-10-05T11:42:06.185Z,1.63
2022-10-05T11:45:19.044Z,1.80
2022-10-05T11:48:03.661Z,1.70
2022-10-05T11:50:50.413Z,1.90
2022-10-05T11:53:46.391Z,3.58
2022-10-05T11:56:31.345Z,3.70
2022-10-05T11:59:08.129Z,1.90
2022-10-05T12:02:04.195Z,1.55
2022-10-05T12:04:33.381Z,2.33
2022-10-05T12:07:15.486Z,1.80
2022-10-05T12:10:11.363Z,2.22
2022-10-05T12:13:10.030Z,1.40
2022-10-05T12:16:02.570Z,1.50
2022-10-05T12:18:32.574Z,1.50
2022-10-05T12:21:04.967Z,1.95
2022-10-05T12:23:37.322Z,1.73
2022-10-05T12:26:11.008Z,2.78
2022-10-05T12:28:48.924Z,2.33
2022-10-05T12:31:27.449Z,2.38
2022-10-05T12:34:22.643Z,2.70
2022-10-05T12:37:04.510Z,2.60
2022-10-05T12:39:54.554Z,2.55
2022-10-05T12:42:45.716Z,2.42
2022-10-05T12:45:32.276Z,2.60
2022-10-05T12:48:36.078Z,2.42
2022-10-05T12:51:27.858Z,2.78
2022-10-05T12:54:06.410Z,2.30
2022-10-05T12:57:01.601Z,2.20
2022-10-05T13:00:00.761Z,2.63
2022-10-05T13:03:09.753Z,2.42
2022-10-05T13:06:01.771Z,2.42
2022-10-05T13:08:55.892Z,3.40
2022-10-05T13:11:35.873Z,2.00
2022-10-05T13:14:35.266Z,2.30
2022-10-05T13:17:42.933Z,2.55
2022-10-05T13:20:22.452Z,2.15
2022-10-05T13:23:06.752Z,2.30
2022-10-05T13:25:41.054Z,2.13
2022-10-05T13:28:16.606Z,2.30
2022-10-05T13:30:52.162Z,2.33
2022-10-05T13:33:28.609Z,1.95
2022-10-05T13:36:10.869Z,2.65
2022-10-05T13:38:54.907Z,2.17
2022-10-05T13:41:36.545Z,2.35
2022-10-05T13:44:24.008Z,2.22
2022-10-05T13:47:01.974Z,2.17
2022-10-05T13:49:32.772Z,2.20
2022-10-05T13:52:08.664Z,8.65
2022-10-05T13:54:49.516Z,2.33
2022-10-05T13:57:44.901Z,2.13
2022-10-05T14:00:25.656Z,2.60
2022-10-05T14:02:56.219Z,2.33
2022-10-05T14:05:28.406Z,2.38
2022-10-05T14:07:56.626Z,2.17
2022-10-05T14:10:35.046Z,2.58
2022-10-05T14:13:18.200Z,2.30
2022-10-05T14:16:04.321Z,1.80
2022-10-05T14:18:33.610Z,2.20
2022-10-05T14:21:12.566Z,2.17
2022-10-05T14:26:20.269Z,3.80
2022-10-05T14:31:29.724Z,1.73
2022-10-05T14:33:56.320Z,1.83
2022-10-05T14:36:39.105Z,1.60
2022-10-05T14:39:12.493Z,1.70
2022-10-05T14:41:46.166Z,2.30
2022-10-05T14:44:12.595Z,2.03
2022-10-05T14:46:51.945Z,1.90
2022-10-05T14:49:28.118Z,1.90
2022-10-05T14:51:55.874Z,1.92
2022-10-05T14:54:22.240Z,1.80
2022-10-05T14:56:58.004Z,2.20
2022-10-05T14:59:40.129Z,1.90
2022-10-05T15:02:45.052Z,1.77
2022-10-05T15:05:16.276Z,1.83
2022-10-05T15:10:57.103Z,2.15
2022-10-05T15:13:32.687Z,2.25
2022-10-05T15:16:05.446Z,2.13
2022-10-05T15:18:48.705Z,1.88
2022-10-05T15:21:27.137Z,1.98
2022-10-05T15:24:07.104Z,1.63
2022-10-05T15:26:42.687Z,1.83
2022-10-05T15:29:38.554Z,1.98
2022-10-05T15:32:34.348Z,2.20
2022-10-05T15:35:22.010Z,2.30
2022-10-05T15:37:56.345Z,1.92
2022-10-05T15:40:27.925Z,2.55
2022-10-05T15:43:02.700Z,1.80
2022-10-05T15:45:38.201Z,1.70
2022-10-05T15:48:04.627Z,2.33
2022-10-05T15:50:50.458Z,2.42
2022-10-05T15:53:41.887Z,2.05
2022-10-05T15:56:19.241Z,2.10
2022-10-05T15:58:55.636Z,1.65
2022-10-05T16:01:43.655Z,1.73
2022-10-05T16:04:22.919Z,1.23
2022-10-05T16:07:19.920Z,1.00
2022-10-05T16:10:09.101Z,1.10
2022-10-05T16:13:00.392Z,1.10
2022-10-05T16:15:40.541Z,1.10
2022-10-05T16:18:35.819Z,1.58
2022-10-05T16:21:21.640Z,2.00
2022-10-05T16:24:10.587Z,1.17
2022-10-05T16:26:49.769Z,1.48
2022-10-05T16:29:16.192Z,1.60
2022-10-05T16:32:14.108Z,1.58
2022-10-05T16:35:10.811Z,1.10
2022-10-05T16:38:29.540Z,1.00
2022-10-05T16:41:03.949Z,1.05
2022-10-05T16:43:52.026Z,1.05
2022-10-05T16:46:31.874Z,1.30
2022-10-05T16:49:20.419Z,1.30
2022-10-05T16:51:57.096Z,1.20
2022-10-05T16:54:32.303Z,2.50
2022-10-05T16:57:19.923Z,1.52
2022-10-05T16:59:59.671Z,1.30
2022-10-05T17:02:45.792Z,1.30
2022-10-05T17:05:27.423Z,1.75
2022-10-05T17:08:31.564Z,1.55
2022-10-05T17:11:31.236Z,1.50
2022-10-05T17:14:08.201Z,1.60
2022-10-05T17:16:45.024Z,1.25
2022-10-05T17:19:50.425Z,1.52
2022-10-05T17:22:26.348Z,1.85
2022-10-05T17:25:14.288Z,1.45
2022-10-05T17:27:57.785Z,1.48
2022-10-05T17:30:27.316Z,1.50
2022-10-05T17:33:03.216Z,1.30
2022-10-05T17:36:09.625Z,1.60
2022-10-05T17:38:48.509Z,1.58
2022-10-05T17:41:20.188Z,1.60
2022-10-05T17:46:45.538Z,1.80
2022-10-05T17:49:36.744Z,1.50
2022-10-05T17:52:38.532Z,1.70
2022-10-05T17:55:27.982Z,1.40
2022-10-05T17:57:59.964Z,1.90
2022-10-05T18:00:40.635Z,1.88
2022-10-05T18:03:34.043Z,1.75
2022-10-05T18:06:22.202Z,1.77
2022-10-05T18:08:48.760Z,1.83
2022-10-05T18:11:37.956Z,1.95
2022-10-05T18:14:18.134Z,1.65
2022-10-05T18:17:11.213Z,1.95
2022-10-05T18:19:39.370Z,1.85
2022-10-05T18:22:17.739Z,1.75
2022-10-05T18:24:48.925Z,1.77
2022-10-05T18:27:52.776Z,1.40
2022-10-05T18:30:22.504Z,2.17
2022-10-05T18:33:03.920Z,4.63
2022-10-05T18:35:52.193Z,16.35
2022-10-05T18:39:02.944Z,5.88
2022-10-05T18:41:51.118Z,16.08
2022-10-05T18:44:34.475Z,3.22
2022-10-05T18:47:12.204Z,8.15
2022-10-05T18:50:33.002Z,7.47
2022-10-05T18:53:24.004Z,4.82
2022-10-05T18:56:04.873Z,3.67
2022-10-05T18:58:55.924Z,3.17
2022-10-05T19:04:04.842Z,3.97
2022-10-05T19:06:59.989Z,3.90
2022-10-05T19:09:47.013Z,4.07
2022-10-05T19:12:31.916Z,15.30
2022-10-05T19:15:10.076Z,3.15
2022-10-05T19:18:00.267Z,3.75
2022-10-05T19:20:37.398Z,4.93
2022-10-05T19:23:13.109Z,4.72
2022-10-05T19:25:47.434Z,4.00
2022-10-05T19:28:24.064Z,2.90
2022-10-05T19:30:54.670Z,3.17
2022-10-05T19:33:42.168Z,2.03
2022-10-05T19:36:29.416Z,2.05
2022-10-05T19:39:21.328Z,2.03
2022-10-05T19:44:36.433Z,1.88
2022-10-05T19:47:18.731Z,1.83
2022-10-05T19:49:58.608Z,1.77
2022-10-05T19:52:37.631Z,2.17
2022-10-05T19:55:15.261Z,1.98
2022-10-05T19:57:50.767Z,1.40
2022-10-05T20:00:21.641Z,2.00
2022-10-05T20:02:50.591Z,2.13
2022-10-05T20:05:18.195Z,2.10
2022-10-05T20:07:44.721Z,2.00
2022-10-05T20:10:24.468Z,2.20
2022-10-05T20:12:57.434Z,3.33
2022-10-05T20:15:51.475Z,2.15
2022-10-05T20:19:04.684Z,2.33
2022-10-05T20:21:56.499Z,2.30
2022-10-05T20:24:25.753Z,2.15
2022-10-05T20:27:07.011Z,2.17
2022-10-05T20:29:39.041Z,1.83
2022-10-05T20:32:17.720Z,2.00
2022-10-05T20:34:46.581Z,2.30
2022-10-05T20:37:15.725Z,1.88
2022-10-05T20:39:42.943Z,2.55
2022-10-05T20:42:10.589Z,2.13
2022-10-05T20:44:37.892Z,2.20
2022-10-05T20:47:05.847Z,3.30
2022-10-05T20:49:32.326Z,2.53
2022-10-05T20:51:59.444Z,2.05
2022-10-05T20:54:27.110Z,2.45
2022-10-05T20:56:57.371Z,1.95
2022-10-05T20:59:24.932Z,1.75
2022-10-05T21:01:52.139Z,1.70
2022-10-05T21:04:21.360Z,1.65
2022-10-05T21:06:48.361Z,1.63
2022-10-05T21:09:19.365Z,1.50
2022-10-05T21:11:47.585Z,1.95
2022-10-05T21:14:14.280Z,1.63
2022-10-05T21:16:41.222Z,1.48
2022-10-05T21:19:09.710Z,1.70
2022-10-05T21:21:36.462Z,1.70
2022-10-05T21:24:03.493Z,1.80
2022-10-05T21:26:30.028Z,1.80
2022-10-05T21:28:58.266Z,1.65
2022-10-05T21:31:25.742Z,1.58
2022-10-05T21:33:52.335Z,1.80
2022-10-05T21:36:23.835Z,1.55
2022-10-05T21:38:52.655Z,1.40
2022-10-05T21:41:19.668Z,1.55
2022-10-05T21:43:46.149Z,1.48
2022-10-05T21:46:15.853Z,2.17
2022-10-05T21:48:42.844Z,1.17
2022-10-05T21:51:13.307Z,1.30
2022-10-05T21:53:45.958Z,1.67
2022-10-05T21:56:15.908Z,1.42
2022-10-05T21:58:46.396Z,1.70
2022-10-05T22:01:12.915Z,1.73
2022-10-05T22:03:39.390Z,1.60
2022-10-05T22:06:05.972Z,1.50
2022-10-05T22:08:34.114Z,1.45
2022-10-05T22:11:01.304Z,1.63
2022-10-05T22:13:38.813Z,1.30
2022-10-05T22:16:05.432Z,1.52
2022-10-05T22:18:32.127Z,1.23
2022-10-05T22:20:58.752Z,1.40
2022-10-05T22:23:25.148Z,1.40
2022-10-05T22:25:51.630Z,1.75
2022-10-05T22:28:18.110Z,1.30
2022-10-05T22:30:45.360Z,1.40
2022-10-05T22:33:12.252Z,1.10
2022-10-05T22:35:39.164Z,1.20
2022-10-05T22:38:05.583Z,1.80
2022-10-05T22:40:31.980Z,1.30
2022-10-05T22:42:58.445Z,1.67
2022-10-05T22:45:29.148Z,1.30
2022-10-05T22:47:58.137Z,1.30
2022-10-05T22:50:24.593Z,1.20
2022-10-05T22:52:52.345Z,1.35
2022-10-05T22:55:18.951Z,1.60
2022-10-05T22:57:45.445Z,1.35
2022-10-05T23:00:12.963Z,1.30
2022-10-05T23:02:42.451Z,1.48
2022-10-05T23:05:10.515Z,1.55
2022-10-05T23:07:38.997Z,1.23
2022-10-05T23:10:06.728Z,1.20
2022-10-05T23:12:34.616Z,1.20
2022-10-05T23:15:01.779Z,1.50
2022-10-05T23:17:28.625Z,1.70
2022-10-05T23:19:55.006Z,1.70
2022-10-05T23:22:21.546Z,1.30
2022-10-05T23:24:47.976Z,1.52
2022-10-05T23:27:14.644Z,1.70
2022-10-05T23:29:41.068Z,1.40
2022-10-05T23:32:07.975Z,1.50
2022-10-05T23:34:34.548Z,1.50
2022-10-05T23:37:00.921Z,1.40
2022-10-05T23:39:27.297Z,1.30
2022-10-05T23:41:53.747Z,2.15
2022-10-05T23:44:20.469Z,1.20
2022-10-05T23:46:46.866Z,1.48
2022-10-05T23:49:14.698Z,1.42
2022-10-05T23:51:42.245Z,1.17
2022-10-05T23:54:08.664Z,1.40
2022-10-05T23:56:35.149Z,1.23
2022-10-05T23:59:01.530Z,1.48
